Time;durP1;ratioP1;P1;durP2;ratioP2;P2;SDS_P1;SDS_P2;PMS_P1;PMS_P2;Temp;Humidity;BMP_temperature;BMP_pressure;BME280_temperature;BME280_humidity;BME280_pressure;Samples;Min_cycle;Max_cycle;Signal;HPM_P1;HPM_P2
2021/12/26 00:00:29;;;;;;;;;;;-8.10;99.90;;;;;;4959076;28;19922;-88
2021/12/26 00:02:57;;;;;;;;;;;-8.10;99.90;;;;;;4963271;28;20416;-88
2021/12/26 00:05:32;;;;;;;;;;;-7.90;99.90;;;;;;4944701;28;20001;-89
2021/12/26 00:08:12;;;;;;;;;;;-7.90;99.90;;;;;;4951171;28;19921;-89
2021/12/26 00:10:40;;;;;;;;;;;-8.00;99.90;;;;;;4961819;28;19929;-88
2021/12/26 00:13:08;;;;;;;;;;;-8.10;99.90;;;;;;4962273;28;19926;-89
2021/12/26 00:15:36;;;;;;;;;;;-7.90;99.90;;;;;;4960902;28;20390;-90
2021/12/26 00:18:19;;;;;;;;;;;;;;;;;;;;;
2021/12/26 00:20:47;;;;;;;;;;;-7.80;99.90;;;;;;4974440;28;19997;-89
2021/12/26 00:23:34;;;;;;;;;;;-7.80;99.90;;;;;;4951806;28;19977;-88
2021/12/26 00:25:58;;;;;;;;;;;-7.80;99.90;;;;;;4958094;28;19972;-88
2021/12/26 00:28:24;;;;;;;;;;;-5.90;99.90;;;;;;4952789;28;19930;-89
2021/12/26 00:30:52;;;;;;;;;;;-7.80;99.90;;;;;;4953066;28;19929;-89
2021/12/26 00:33:27;;;;;;;;;;;-7.80;99.90;;;;;;4939201;28;20020;-89
2021/12/26 00:35:53;;;;;;;;;;;-7.70;99.90;;;;;;4939741;28;19980;-88
2021/12/26 00:38:21;;;;;;;;;;;-7.60;99.90;;;;;;4944723;28;19925;-89
2021/12/26 00:40:56;;;;;;;;;;;-7.70;99.90;;;;;;4953465;28;19930;-89
2021/12/26 00:43:26;;;;;;;;;;;-7.60;99.90;;;;;;4937212;28;19921;-89
2021/12/26 00:46:04;;;;;;;;;;;;;;;;;;;;;
2021/12/26 00:48:38;;;;;;;;;;;-7.60;99.90;;;;;;4958229;28;20444;-89
2021/12/26 00:51:06;;;;;;;;;;;-7.60;99.90;;;;;;4975716;28;19921;-88
2021/12/26 00:53:37;;;;;;;;;;;-7.70;99.90;;;;;;4956606;28;19936;-89
2021/12/26 00:56:07;;;;;;;;;;;-7.70;99.90;;;;;;4941986;28;19926;-88
2021/12/26 00:58:33;;;;;;;;;;;-7.70;99.90;;;;;;4945809;28;19929;-88
2021/12/26 01:01:01;;;;;;;;;;;-7.90;99.90;;;;;;4942287;28;20089;-87
2021/12/26 01:03:29;;;;;;;;;;;-7.80;99.90;;;;;;4957601;28;19925;-88
2021/12/26 01:06:02;;;;;;;;;;;-5.60;99.90;;;;;;4957441;28;19922;-88
2021/12/26 01:08:30;;;;;;;;;;;-7.80;99.90;;;;;;4954237;29;19928;-88
2021/12/26 01:11:06;;;;;;;;;;;-7.90;99.90;;;;;;4959036;28;20309;-88
2021/12/26 01:13:37;;;;;;;;;;;-7.80;99.90;;;;;;4943675;28;19948;-87
2021/12/26 01:16:04;;;;;;;;;;;-8.60;99.90;;;;;;4946609;28;19922;-88
2021/12/26 01:18:59;;;;;;;;;;;-7.90;99.90;;;;;;4944655;28;19926;-88
2021/12/26 01:21:26;;;;;;;;;;;-7.70;99.90;;;;;;4944800;28;19922;-88
2021/12/26 01:24:02;;;;;;;;;;;-8.30;99.90;;;;;;4958631;28;20322;-88
2021/12/26 01:26:31;;;;;;;;;;;-7.80;99.90;;;;;;4954110;28;19922;-89
2021/12/26 01:29:02;;;;;;;;;;;-7.80;99.90;;;;;;4922419;29;19929;-88
2021/12/26 01:31:27;;;;;;;;;;;-7.10;99.90;;;;;;4942221;28;20327;-88
2021/12/26 01:34:01;;;;;;;;;;;-8.40;99.90;;;;;;4946329;28;19972;-89
2021/12/26 01:36:30;;;;;;;;;;;-7.30;99.90;;;;;;4965951;28;19945;-88
2021/12/26 01:38:58;;;;;;;;;;;-8.00;99.90;;;;;;4972888;28;20017;-88
2021/12/26 01:41:24;;;;;;;;;;;-8.00;99.90;;;;;;4941173;28;19929;-88
2021/12/26 01:44:04;;;;;;;;;;;-7.90;99.90;;;;;;4951861;28;19922;-89
2021/12/26 01:46:30;;;;;;;;;;;-7.90;99.90;;;;;;4960236;28;20271;-88
2021/12/26 01:49:12;;;;;;;;;;;-8.10;99.90;;;;;;4948412;28;20494;-88
2021/12/26 01:51:38;;;;;;;;;;;-7.70;99.90;;;;;;4953917;28;19926;-89
2021/12/26 01:54:09;;;;;;;;;;;-8.60;99.90;;;;;;4944001;28;19932;-88
2021/12/26 01:56:42;;;;;;;;;;;-6.90;99.90;;;;;;4944622;28;20017;-88
2021/12/26 02:01:59;;;;;;;;;;;-8.00;99.90;;;;;;4952156;28;19922;-90
2021/12/26 02:04:28;;;;;;;;;;;-8.20;99.90;;;;;;4957316;28;20345;-88
2021/12/26 02:07:10;;;;;;;;;;;-7.30;99.90;;;;;;4940680;28;19926;-89
2021/12/26 02:09:35;;;;;;;;;;;-8.60;99.90;;;;;;4959557;28;19922;-88
2021/12/26 02:12:26;;;;;;;;;;;-6.90;99.90;;;;;;4959549;28;19965;-88
2021/12/26 02:14:57;;;;;;;;;;;-8.10;99.90;;;;;;4975293;28;19934;-83
2021/12/26 02:17:25;;;;;;;;;;;-8.20;99.90;;;;;;4975174;28;19922;-88
2021/12/26 02:19:58;;;;;;;;;;;-8.20;99.90;;;;;;4956782;28;19914;-88
2021/12/26 02:22:31;;;;;;;;;;;-8.20;99.90;;;;;;4967687;28;19928;-88
2021/12/26 02:27:38;;;;;;;;;;;-8.80;99.90;;;;;;4960016;28;20413;-88
2021/12/26 02:30:06;;;;;;;;;;;-8.30;99.90;;;;;;4944464;28;19922;-87
2021/12/26 02:32:39;;;;;;;;;;;-5.80;99.90;;;;;;4940227;28;20029;-87
2021/12/26 02:35:09;;;;;;;;;;;-7.40;99.90;;;;;;4958971;28;19926;-88
2021/12/26 02:37:35;;;;;;;;;;;-8.20;99.90;;;;;;4975207;28;19922;-87
2021/12/26 02:40:22;;;;;;;;;;;-8.40;99.90;;;;;;4959442;28;19933;-87
2021/12/26 02:42:47;;;;;;;;;;;-8.20;99.90;;;;;;4975084;28;19979;-89
2021/12/26 02:45:18;;;;;;;;;;;-8.30;99.90;;;;;;4959072;28;19922;-89
2021/12/26 02:47:51;;;;;;;;;;;-8.30;99.90;;;;;;4959897;28;19922;-88
2021/12/26 02:50:31;;;;;;;;;;;-8.50;99.90;;;;;;4958675;28;19922;-87
2021/12/26 02:53:08;;;;;;;;;;;-8.30;99.90;;;;;;4958767;28;19922;-88
2021/12/26 02:55:36;;;;;;;;;;;-8.20;99.90;;;;;;4942889;28;19971;-88
2021/12/26 02:58:12;;;;;;;;;;;-7.90;99.90;;;;;;4938682;28;19922;-86
2021/12/26 03:00:55;;;;;;;;;;;-8.30;99.90;;;;;;4971783;28;20049;-88
2021/12/26 03:03:21;;;;;;;;;;;-8.30;99.90;;;;;;4958729;28;19933;-88
2021/12/26 03:05:46;;;;;;;;;;;-8.40;99.90;;;;;;4959019;28;19922;-87
2021/12/26 03:08:16;;;;;;;;;;;-8.60;99.90;;;;;;4958974;28;20432;-88
2021/12/26 03:10:44;;;;;;;;;;;-8.50;99.90;;;;;;4959094;28;19929;-87
2021/12/26 03:13:10;;;;;;;;;;;-8.60;99.90;;;;;;4959126;28;19922;-87
2021/12/26 03:15:38;;;;;;;;;;;-8.40;99.90;;;;;;4958877;28;19928;-88
2021/12/26 03:18:16;;;;;;;;;;;;;;;;;;;;;
2021/12/26 03:20:45;;;;;;;;;;;-8.40;99.90;;;;;;4959787;28;19925;-88
2021/12/26 03:23:14;;;;;;;;;;;-8.30;99.90;;;;;;4948861;28;19925;-88
2021/12/26 03:25:42;;;;;;;;;;;-7.60;99.90;;;;;;4955669;28;19984;-88
2021/12/26 03:28:21;;;;;;;;;;;;;;;;;;;;;
2021/12/26 03:33:32;;;;;;;;;;;-8.20;99.90;;;;;;4961407;28;20013;-88
2021/12/26 03:35:58;;;;;;;;;;;-8.60;99.90;;;;;;4958717;28;20290;-87
2021/12/26 03:38:23;;;;;;;;;;;-6.80;99.90;;;;;;4958524;28;19984;-87
2021/12/26 03:40:50;;;;;;;;;;;-8.30;99.90;;;;;;4958163;28;20255;-88
2021/12/26 03:43:18;;;;;;;;;;;-8.50;99.90;;;;;;4958922;28;19964;-89
2021/12/26 03:45:44;;;;;;;;;;;-8.60;99.90;;;;;;4958384;28;19957;-88
2021/12/26 03:48:17;;;;;;;;;;;-8.40;99.90;;;;;;4958473;28;20297;-88
2021/12/26 03:50:43;;;;;;;;;;;-8.20;99.90;;;;;;4959185;28;19926;-88
2021/12/26 03:53:20;;;;;;;;;;;-8.30;99.90;;;;;;4939684;28;20386;-88
2021/12/26 03:55:50;;;;;;;;;;;-6.40;99.90;;;;;;4971587;28;20330;-88
2021/12/26 03:58:21;;;;;;;;;;;-8.10;99.90;;;;;;4975137;28;19953;-88
2021/12/26 04:00:49;;;;;;;;;;;-8.00;99.90;;;;;;4958961;28;19961;-88
2021/12/26 04:03:17;;;;;;;;;;;-8.00;99.90;;;;;;4947386;28;19929;-88
2021/12/26 04:05:43;;;;;;;;;;;-8.10;99.90;;;;;;4951114;28;19929;-89
2021/12/26 04:08:08;;;;;;;;;;;-7.60;99.90;;;;;;4959254;28;20292;-89
2021/12/26 04:10:39;;;;;;;;;;;-8.20;99.90;;;;;;4942745;28;19926;-88
2021/12/26 04:13:12;;;;;;;;;;;-8.20;99.90;;;;;;4958749;28;20032;-88
2021/12/26 04:15:41;;;;;;;;;;;-8.20;99.90;;;;;;4958826;28;20009;-88
2021/12/26 04:18:07;;;;;;;;;;;-7.60;99.90;;;;;;4963644;28;20243;-88
2021/12/26 04:20:37;;;;;;;;;;;-8.20;99.90;;;;;;4945176;28;19928;-88
2021/12/26 04:23:06;;;;;;;;;;;-8.20;99.90;;;;;;4961611;28;19921;-87
2021/12/26 04:25:31;;;;;;;;;;;-8.40;99.90;;;;;;4958656;28;20315;-88
2021/12/26 04:28:04;;;;;;;;;;;-8.30;99.90;;;;;;4967310;28;19968;-87
2021/12/26 04:30:33;;;;;;;;;;;-8.50;99.90;;;;;;4961281;28;20358;-88
2021/12/26 04:32:58;;;;;;;;;;;-8.00;99.90;;;;;;4961313;28;19937;-89
2021/12/26 04:35:24;;;;;;;;;;;-8.90;99.90;;;;;;4942131;28;19976;-88
2021/12/26 04:37:52;;;;;;;;;;;-8.50;99.90;;;;;;4961016;28;19936;-87
2021/12/26 04:40:21;;;;;;;;;;;-8.30;99.90;;;;;;4961744;28;19925;-89
2021/12/26 04:42:49;;;;;;;;;;;-8.40;99.90;;;;;;4977241;28;19922;-89
2021/12/26 04:45:14;;;;;;;;;;;-8.60;99.90;;;;;;4961347;28;19996;-88
2021/12/26 04:47:40;;;;;;;;;;;-8.10;99.90;;;;;;4961376;28;20354;-88
2021/12/26 04:50:28;;;;;;;;;;;-8.80;99.90;;;;;;4961147;28;20066;-88
2021/12/26 04:53:02;;;;;;;;;;;-8.40;99.90;;;;;;4957206;28;19930;-89
2021/12/26 04:55:30;;;;;;;;;;;-8.40;99.90;;;;;;4957895;28;20302;-87
2021/12/26 04:57:58;;;;;;;;;;;-8.60;99.90;;;;;;4924726;28;19922;-89
2021/12/26 05:00:32;;;;;;;;;;;-6.90;99.90;;;;;;4942026;28;20465;-88
2021/12/26 05:03:02;;;;;;;;;;;-8.40;99.90;;;;;;4925353;28;20294;-88
2021/12/26 05:05:31;;;;;;;;;;;-8.30;99.90;;;;;;4922990;29;20140;-89
2021/12/26 05:07:59;;;;;;;;;;;-8.50;99.90;;;;;;4940957;28;19937;-88
2021/12/26 05:10:27;;;;;;;;;;;-8.30;99.90;;;;;;4926358;28;19922;-88
2021/12/26 05:12:52;;;;;;;;;;;-6.70;99.90;;;;;;4925737;28;19922;-89
2021/12/26 05:15:28;;;;;;;;;;;;;;;;;;;;;
2021/12/26 05:17:54;;;;;;;;;;;-8.30;99.90;;;;;;4957331;28;19922;-87
2021/12/26 05:20:19;;;;;;;;;;;-8.60;99.90;;;;;;4924460;28;19969;-89
2021/12/26 05:22:46;;;;;;;;;;;-8.30;99.90;;;;;;4941339;28;19976;-88
2021/12/26 05:25:14;;;;;;;;;;;-8.10;99.90;;;;;;4925566;28;20326;-88
2021/12/26 05:27:40;;;;;;;;;;;-6.00;99.90;;;;;;4940442;28;19926;-88
2021/12/26 05:30:06;;;;;;;;;;;-8.20;99.90;;;;;;4940496;28;19985;-89
2021/12/26 05:32:31;;;;;;;;;;;-8.20;99.90;;;;;;4941221;28;19922;-88
2021/12/26 05:34:59;;;;;;;;;;;-8.60;99.90;;;;;;4937091;28;19926;-89
2021/12/26 05:37:32;;;;;;;;;;;-7.00;99.90;;;;;;4925548;28;20041;-87
2021/12/26 05:40:00;;;;;;;;;;;-8.30;99.90;;;;;;4941985;28;20282;-89
2021/12/26 05:42:26;;;;;;;;;;;-8.30;99.90;;;;;;4941603;28;19929;-87
2021/12/26 05:44:51;;;;;;;;;;;-8.80;99.90;;;;;;4940535;28;19922;-88
2021/12/26 05:47:19;;;;;;;;;;;-8.60;99.90;;;;;;4924130;28;19926;-89
2021/12/26 05:49:55;;;;;;;;;;;;;;;;;;;;;
2021/12/26 05:52:21;;;;;;;;;;;-8.50;99.90;;;;;;4954811;28;19929;-89
2021/12/26 05:54:47;;;;;;;;;;;-8.60;99.90;;;;;;4956445;28;20279;-88
2021/12/26 05:57:20;;;;;;;;;;;-9.10;99.90;;;;;;4940131;28;19929;-88
2021/12/26 05:59:46;;;;;;;;;;;-8.70;99.90;;;;;;4924030;29;19923;-89
2021/12/26 06:02:11;;;;;;;;;;;-7.10;99.90;;;;;;4945231;28;20322;-88
2021/12/26 06:04:37;;;;;;;;;;;-8.70;99.90;;;;;;4958648;28;19969;-88
2021/12/26 06:07:05;;;;;;;;;;;-8.90;99.90;;;;;;4963158;28;20326;-88
2021/12/26 06:09:33;;;;;;;;;;;-8.70;99.90;;;;;;4939570;29;19927;-88
2021/12/26 06:11:58;;;;;;;;;;;-10.40;99.90;;;;;;4928040;28;19973;-88
2021/12/26 06:14:31;;;;;;;;;;;-8.60;99.90;;;;;;4944329;28;19926;-89
2021/12/26 06:17:00;;;;;;;;;;;-7.90;99.90;;;;;;4956652;28;20334;-88
2021/12/26 06:19:33;;;;;;;;;;;-7.30;99.90;;;;;;4952703;28;19929;-89
2021/12/26 06:22:06;;;;;;;;;;;-8.70;99.90;;;;;;4935719;28;20286;-88
2021/12/26 06:24:34;;;;;;;;;;;-8.70;99.90;;;;;;4959147;28;19976;-88
2021/12/26 06:27:00;;;;;;;;;;;-8.60;99.90;;;;;;4958080;28;20286;-88
2021/12/26 06:29:38;;;;;;;;;;;;;;;;;;;;;
2021/12/26 06:32:08;;;;;;;;;;;-8.50;99.90;;;;;;4945678;28;19984;-88
2021/12/26 06:34:37;;;;;;;;;;;-8.50;99.90;;;;;;4957914;28;19926;-90
2021/12/26 06:37:05;;;;;;;;;;;-8.40;99.90;;;;;;4940617;28;20300;-87
2021/12/26 06:39:30;;;;;;;;;;;-8.40;99.90;;;;;;4945849;28;20307;-87
2021/12/26 06:41:58;;;;;;;;;;;-8.80;99.90;;;;;;4958297;28;19922;-88
2021/12/26 06:44:29;;;;;;;;;;;-8.40;99.90;;;;;;4962228;28;19926;-89
2021/12/26 06:47:05;;;;;;;;;;;;;;;;;;;;;
2021/12/26 06:49:31;;;;;;;;;;;-8.30;99.90;;;;;;4957416;28;19933;-88
2021/12/26 06:51:56;;;;;;;;;;;-6.50;99.90;;;;;;4951572;28;19929;-89
2021/12/26 06:54:24;;;;;;;;;;;-8.40;99.90;;;;;;4941681;28;19950;-89
2021/12/26 06:56:50;;;;;;;;;;;-7.20;99.90;;;;;;4943142;28;19922;-88
2021/12/26 06:59:21;;;;;;;;;;;-8.40;99.90;;;;;;4959073;28;19988;-88
2021/12/26 07:01:49;;;;;;;;;;;-8.40;99.90;;;;;;4958088;28;19965;-88
2021/12/26 07:04:22;;;;;;;;;;;-7.00;99.90;;;;;;4942687;28;19922;-90
2021/12/26 07:06:50;;;;;;;;;;;-8.10;99.90;;;;;;4946012;28;19932;-88
2021/12/26 07:09:18;;;;;;;;;;;-7.40;99.90;;;;;;4942899;28;19926;-88
2021/12/26 07:11:51;;;;;;;;;;;-8.10;99.90;;;;;;4959493;28;19929;-90
2021/12/26 07:14:24;;;;;;;;;;;-7.70;99.90;;;;;;4942595;28;20362;-89
2021/12/26 07:16:50;;;;;;;;;;;-7.90;99.90;;;;;;4959351;28;20271;-89
2021/12/26 07:19:15;;;;;;;;;;;-8.20;99.90;;;;;;4958859;28;20028;-89
2021/12/26 07:21:41;;;;;;;;;;;-8.50;99.90;;;;;;4958642;28;19922;-88
2021/12/26 07:24:07;;;;;;;;;;;-8.20;99.90;;;;;;4959152;28;19926;-89
2021/12/26 07:26:40;;;;;;;;;;;-7.70;99.90;;;;;;4959090;28;19925;-88
2021/12/26 07:29:08;;;;;;;;;;;-8.10;99.90;;;;;;4960318;28;20094;-89
2021/12/26 07:31:43;;;;;;;;;;;-6.60;99.90;;;;;;4942601;28;20353;-88
2021/12/26 07:34:16;;;;;;;;;;;-6.70;99.90;;;;;;4942767;28;20274;-87
2021/12/26 07:36:44;;;;;;;;;;;-8.30;99.90;;;;;;4956543;28;19922;-88
2021/12/26 07:39:10;;;;;;;;;;;-8.50;99.90;;;;;;4958546;28;20012;-88
2021/12/26 07:41:38;;;;;;;;;;;-7.60;99.90;;;;;;4974321;28;19969;-87
2021/12/26 07:44:03;;;;;;;;;;;-8.00;99.90;;;;;;4961764;28;20338;-87
2021/12/26 07:46:29;;;;;;;;;;;-7.90;99.90;;;;;;4940169;28;19926;-87
2021/12/26 07:48:57;;;;;;;;;;;-7.50;99.90;;;;;;4962159;28;19964;-88
2021/12/26 07:51:22;;;;;;;;;;;-6.70;99.90;;;;;;4942889;28;19926;-89
2021/12/26 07:53:50;;;;;;;;;;;-7.90;99.90;;;;;;4967575;28;20348;-86
2021/12/26 07:56:19;;;;;;;;;;;-7.50;99.90;;;;;;4942988;28;20298;-88
2021/12/26 07:58:44;;;;;;;;;;;-7.80;99.90;;;;;;4960261;28;19925;-87
2021/12/26 08:01:10;;;;;;;;;;;-8.30;99.90;;;;;;4946514;28;20278;-87
2021/12/26 08:03:36;;;;;;;;;;;-7.90;99.90;;;;;;4943136;28;19928;-88
2021/12/26 08:06:11;;;;;;;;;;;-6.90;99.90;;;;;;4961884;28;20008;-88
2021/12/26 08:08:39;;;;;;;;;;;-7.60;99.90;;;;;;4947459;28;20290;-88
2021/12/26 08:11:07;;;;;;;;;;;-7.50;99.90;;;;;;4946312;28;19929;-88
2021/12/26 08:13:35;;;;;;;;;;;-7.60;99.90;;;;;;4977819;28;20025;-89
2021/12/26 08:16:00;;;;;;;;;;;-7.30;99.90;;;;;;4945729;28;20598;-88
2021/12/26 08:18:28;;;;;;;;;;;-8.00;99.90;;;;;;4943490;28;19922;-88
2021/12/26 08:20:56;;;;;;;;;;;-6.90;99.90;;;;;;4962340;28;19973;-88
2021/12/26 08:23:22;;;;;;;;;;;-8.10;99.90;;;;;;4960712;28;19938;-88
2021/12/26 08:25:48;;;;;;;;;;;-7.20;99.90;;;;;;4961489;28;19922;-88
2021/12/26 08:28:15;;;;;;;;;;;-7.90;99.90;;;;;;4942451;28;19929;-89
2021/12/26 08:30:42;;;;;;;;;;;-5.90;99.90;;;;;;4976236;28;20016;-87
2021/12/26 08:33:12;;;;;;;;;;;-7.50;99.90;;;;;;4967219;28;19973;-88
2021/12/26 08:35:39;;;;;;;;;;;-7.30;99.90;;;;;;4952314;28;20374;-88
2021/12/26 08:38:07;;;;;;;;;;;-7.30;99.90;;;;;;4945951;28;19926;-88
2021/12/26 08:40:32;;;;;;;;;;;-7.30;99.90;;;;;;4947117;28;19929;-88
2021/12/26 08:43:00;;;;;;;;;;;-6.30;99.90;;;;;;4963051;28;19922;-88
2021/12/26 08:45:31;;;;;;;;;;;-7.70;99.90;;;;;;4978208;28;19921;-89
2021/12/26 08:48:02;;;;;;;;;;;-7.00;99.90;;;;;;4965420;28;19945;-89
2021/12/26 08:50:33;;;;;;;;;;;-6.70;99.90;;;;;;4981711;28;19921;-88
2021/12/26 08:53:01;;;;;;;;;;;-5.80;99.90;;;;;;4936271;28;20432;-89
2021/12/26 08:55:34;;;;;;;;;;;-6.70;99.90;;;;;;4941825;28;19933;-89
2021/12/26 08:58:07;;;;;;;;;;;-5.80;99.90;;;;;;4943261;28;20467;-89
2021/12/26 09:00:36;;;;;;;;;;;-5.90;99.90;;;;;;4943137;28;19922;-89
2021/12/26 09:03:04;;;;;;;;;;;-7.30;99.90;;;;;;4926647;28;20068;-88
2021/12/26 09:05:37;;;;;;;;;;;-7.30;99.90;;;;;;4926401;28;19922;-89
2021/12/26 09:08:07;;;;;;;;;;;-6.80;99.90;;;;;;4943517;28;20341;-88
2021/12/26 09:10:35;;;;;;;;;;;-6.50;99.90;;;;;;4942835;28;19928;-89
2021/12/26 09:13:01;;;;;;;;;;;-6.20;99.90;;;;;;4928899;28;20366;-88
2021/12/26 09:15:29;;;;;;;;;;;-5.50;99.90;;;;;;4938867;28;20042;-89
2021/12/26 09:17:57;;;;;;;;;;;-6.40;99.90;;;;;;4930619;28;20290;-89
2021/12/26 09:20:28;;;;;;;;;;;-6.30;99.90;;;;;;4917992;28;19930;-89
2021/12/26 09:22:59;;;;;;;;;;;-6.10;99.90;;;;;;4926715;28;19953;-88
2021/12/26 09:25:25;;;;;;;;;;;-6.30;99.90;;;;;;4934797;28;19922;-89
2021/12/26 09:27:53;;;;;;;;;;;-6.00;99.90;;;;;;4926450;28;19949;-89
2021/12/26 09:30:27;;;;;;;;;;;-6.40;99.90;;;;;;4926530;28;19922;-90
2021/12/26 09:32:53;;;;;;;;;;;-6.20;99.90;;;;;;4942820;28;19922;-90
2021/12/26 09:35:31;;;;;;;;;;;;;;;;;;;;;
2021/12/26 09:38:00;;;;;;;;;;;-4.20;99.90;;;;;;4943315;28;19926;-88
2021/12/26 09:40:28;;;;;;;;;;;-5.10;99.90;;;;;;4925933;28;20541;-88
2021/12/26 09:42:56;;;;;;;;;;;-3.50;99.90;;;;;;4926863;28;20345;-89
2021/12/26 09:45:22;;;;;;;;;;;-6.00;99.90;;;;;;4933186;28;19945;-88
2021/12/26 09:47:58;;;;;;;;;;;-5.70;99.90;;;;;;4943157;28;19922;-88
2021/12/26 09:50:25;;;;;;;;;;;-5.70;99.90;;;;;;4939560;28;19922;-88
2021/12/26 09:52:54;;;;;;;;;;;-5.50;99.90;;;;;;4941395;28;20404;-89
2021/12/26 09:55:20;;;;;;;;;;;-5.90;99.90;;;;;;4925666;28;19926;-88
2021/12/26 09:57:45;;;;;;;;;;;-4.20;99.90;;;;;;4957002;28;20025;-88
2021/12/26 10:00:17;;;;;;;;;;;-4.00;99.90;;;;;;4925087;28;19984;-89
2021/12/26 10:02:42;;;;;;;;;;;-5.00;99.90;;;;;;4940936;28;20274;-89
2021/12/26 10:05:08;;;;;;;;;;;-4.70;99.90;;;;;;4924960;28;19983;-88
2021/12/26 10:07:36;;;;;;;;;;;-5.20;99.90;;;;;;4924568;28;19934;-89
2021/12/26 10:10:11;;;;;;;;;;;-4.30;99.90;;;;;;4925622;28;19922;-89
2021/12/26 10:12:39;;;;;;;;;;;-3.40;99.90;;;;;;4925053;28;20421;-88
2021/12/26 10:15:08;;;;;;;;;;;-3.10;99.90;;;;;;4940746;28;19995;-89
2021/12/26 10:17:34;;;;;;;;;;;-4.40;99.90;;;;;;4940816;28;20437;-88
2021/12/26 10:20:06;;;;;;;;;;;-4.40;99.90;;;;;;4940976;28;19922;-87
2021/12/26 10:22:32;;;;;;;;;;;-4.10;99.90;;;;;;4924659;28;19976;-87
2021/12/26 10:24:58;;;;;;;;;;;-4.20;99.90;;;;;;4925190;28;20349;-89
2021/12/26 10:27:26;;;;;;;;;;;-3.70;99.90;;;;;;4924801;28;19922;-89
2021/12/26 10:29:55;;;;;;;;;;;-3.90;99.90;;;;;;4924926;28;19922;-87
2021/12/26 10:32:32;;;;;;;;;;;-2.00;99.90;;;;;;4924624;28;19923;-88
2021/12/26 10:35:00;;;;;;;;;;;-2.60;99.90;;;;;;4940355;28;19933;-88
2021/12/26 10:37:32;;;;;;;;;;;-2.60;99.90;;;;;;4924416;28;19922;-89
2021/12/26 10:39:58;;;;;;;;;;;-1.30;99.90;;;;;;4924700;28;20000;-88
2021/12/26 10:42:25;;;;;;;;;;;-0.90;99.90;;;;;;4940361;28;20015;-88
2021/12/26 10:44:54;;;;;;;;;;;-0.70;95.30;;;;;;4940571;28;20278;-88
2021/12/26 10:47:31;;;;;;;;;;;-0.70;98.70;;;;;;4940583;28;21256;-89
2021/12/26 10:49:59;;;;;;;;;;;1.50;99.90;;;;;;4924950;28;20286;-88
2021/12/26 10:52:30;;;;;;;;;;;0.10;99.90;;;;;;4940060;28;19926;-89
2021/12/26 10:55:05;;;;;;;;;;;1.30;93.10;;;;;;4940060;28;19953;-89
2021/12/26 10:57:36;;;;;;;;;;;-0.20;95.10;;;;;;4924672;28;19922;-89
2021/12/26 11:00:23;;;;;;;;;;;0.90;97.90;;;;;;4924126;28;19948;-88
2021/12/26 11:02:52;;;;;;;;;;;1.30;99.30;;;;;;4946610;28;19948;-89
2021/12/26 11:05:30;;;;;;;;;;;1.60;99.90;;;;;;4944707;28;19981;-90
2021/12/26 11:07:59;;;;;;;;;;;2.20;99.90;;;;;;4956077;28;19930;-89
2021/12/26 11:10:26;;;;;;;;;;;3.10;99.60;;;;;;4939607;28;19922;-88
2021/12/26 11:12:55;;;;;;;;;;;5.30;98.60;;;;;;4939922;28;20295;-89
2021/12/26 11:15:29;;;;;;;;;;;4.80;98.90;;;;;;4956074;28;20424;-89
2021/12/26 11:18:24;;;;;;;;;;;4.70;97.30;;;;;;4957542;28;19928;-88
2021/12/26 11:20:52;;;;;;;;;;;4.90;99.70;;;;;;4950750;28;19926;-89
2021/12/26 11:23:19;;;;;;;;;;;5.40;98.90;;;;;;4943470;28;19969;-88
2021/12/26 11:25:45;;;;;;;;;;;5.10;94.30;;;;;;4960005;28;19922;-89
2021/12/26 11:28:11;;;;;;;;;;;6.30;99.90;;;;;;4959453;28;20390;-88
2021/12/26 11:30:39;;;;;;;;;;;5.40;95.00;;;;;;4940888;28;20043;-89
2021/12/26 11:33:05;;;;;;;;;;;6.10;98.40;;;;;;4945557;28;19977;-88
2021/12/26 11:35:31;;;;;;;;;;;4.60;95.60;;;;;;4932891;28;20392;-89
2021/12/26 11:37:56;;;;;;;;;;;4.30;92.10;;;;;;4943021;28;19976;-88
2021/12/26 11:40:27;;;;;;;;;;;3.30;94.30;;;;;;4943068;28;19922;-90
2021/12/26 11:43:11;;;;;;;;;;;3.50;92.00;;;;;;4943306;28;19979;-89
2021/12/26 11:45:40;;;;;;;;;;;1.80;92.60;;;;;;4959186;28;19929;-90
2021/12/26 11:48:21;;;;;;;;;;;1.00;94.00;;;;;;4943584;28;19949;-89
2021/12/26 11:51:05;;;;;;;;;;;0.40;93.60;;;;;;4958797;28;20017;-89
2021/12/26 11:53:36;;;;;;;;;;;0.80;95.20;;;;;;4978073;28;19932;-89
2021/12/26 11:56:11;;;;;;;;;;;1.00;90.10;;;;;;4978573;28;19926;-88
2021/12/26 11:58:45;;;;;;;;;;;0.60;90.10;;;;;;4962676;28;19977;-90
2021/12/26 12:01:17;;;;;;;;;;;1.60;92.60;;;;;;4978304;28;19925;-90
2021/12/26 12:03:42;;;;;;;;;;;1.70;91.10;;;;;;4994586;28;19926;-86
2021/12/26 12:06:08;;;;;;;;;;;0.70;90.00;;;;;;4978328;28;19943;-88
2021/12/26 12:08:34;;;;;;;;;;;1.00;92.70;;;;;;4962191;28;19925;-89
2021/12/26 12:11:01;;;;;;;;;;;-0.10;96.70;;;;;;4962334;28;20005;-89
2021/12/26 12:13:27;;;;;;;;;;;-0.50;95.10;;;;;;4978284;28;19961;-88
2021/12/26 12:16:01;;;;;;;;;;;-0.50;93.70;;;;;;4962004;28;20365;-89
2021/12/26 12:18:35;;;;;;;;;;;-0.30;95.30;;;;;;4961982;28;19922;-88
2021/12/26 12:21:07;;;;;;;;;;;-1.00;90.50;;;;;;4961873;28;20285;-89
2021/12/26 12:23:33;;;;;;;;;;;-0.40;94.90;;;;;;4961965;28;19929;-88
2021/12/26 12:25:59;;;;;;;;;;;-0.60;93.20;;;;;;4978175;28;19922;-89
2021/12/26 12:28:28;;;;;;;;;;;-1.00;94.10;;;;;;4961458;28;20285;-89
2021/12/26 12:30:54;;;;;;;;;;;0.30;95.40;;;;;;4961266;28;19922;-88
2021/12/26 12:33:21;;;;;;;;;;;-0.90;97.40;;;;;;4961679;28;20025;-89
2021/12/26 12:35:49;;;;;;;;;;;-0.80;93.20;;;;;;4977649;28;19922;-89
2021/12/26 12:38:47;;;;;;;;;;;0.20;95.20;;;;;;4961701;28;19926;-89
2021/12/26 12:41:34;;;;;;;;;;;-0.70;96.20;;;;;;4944714;28;19972;-88
2021/12/26 12:44:00;;;;;;;;;;;-0.70;94.80;;;;;;4977710;28;19928;-89
2021/12/26 12:46:26;;;;;;;;;;;-0.70;95.70;;;;;;4961474;28;19921;-88
2021/12/26 12:49:08;;;;;;;;;;;-0.80;96.00;;;;;;4961677;28;19929;-88
2021/12/26 12:51:34;;;;;;;;;;;-0.60;96.20;;;;;;4961172;28;19926;-89
2021/12/26 12:54:07;;;;;;;;;;;0.80;96.80;;;;;;4961373;28;19925;-88
2021/12/26 12:56:44;;;;;;;;;;;-0.70;97.20;;;;;;4961044;28;19921;-88
2021/12/26 12:59:16;;;;;;;;;;;-1.10;97.40;;;;;;4961631;28;19922;-89
2021/12/26 13:01:47;;;;;;;;;;;-0.80;98.00;;;;;;4961214;28;19922;-88
2021/12/26 13:04:15;;;;;;;;;;;-0.80;98.20;;;;;;4977484;28;20021;-89
2021/12/26 13:07:01;;;;;;;;;;;-1.30;97.30;;;;;;4961111;28;20021;-89
2021/12/26 13:12:21;;;;;;;;;;;-1.20;99.50;;;;;;4967007;28;19922;-89
2021/12/26 13:14:47;;;;;;;;;;;0.70;97.40;;;;;;4977421;28;19959;-88
2021/12/26 13:17:28;;;;;;;;;;;-1.30;95.20;;;;;;4961081;28;19922;-89
2021/12/26 13:19:57;;;;;;;;;;;-0.90;97.60;;;;;;4961399;28;19922;-89
2021/12/26 13:22:44;;;;;;;;;;;-1.40;95.40;;;;;;4960782;28;20068;-88
2021/12/26 13:25:13;;;;;;;;;;;-1.10;95.60;;;;;;4970816;28;20285;-90
2021/12/26 13:27:38;;;;;;;;;;;-0.90;98.50;;;;;;4961956;28;19941;-89
2021/12/26 13:30:07;;;;;;;;;;;-1.30;97.30;;;;;;4964026;28;19921;-88
2021/12/26 13:32:37;;;;;;;;;;;-1.30;99.30;;;;;;4984390;28;19921;-89
2021/12/26 13:35:03;;;;;;;;;;;0.00;98.70;;;;;;4973183;28;20350;-88
2021/12/26 13:37:29;;;;;;;;;;;-2.50;98.90;;;;;;4964199;28;19932;-88
2021/12/26 13:39:55;;;;;;;;;;;-0.70;99.40;;;;;;4979946;28;19993;-89
2021/12/26 13:42:23;;;;;;;;;;;-1.80;99.90;;;;;;4980065;28;19948;-89
2021/12/26 13:44:51;;;;;;;;;;;-1.30;99.90;;;;;;4963984;28;19953;-90
2021/12/26 13:47:20;;;;;;;;;;;-0.60;99.90;;;;;;4980761;28;20009;-88
2021/12/26 13:49:46;;;;;;;;;;;-0.50;99.90;;;;;;4979932;28;19973;-89
2021/12/26 13:52:18;;;;;;;;;;;-1.70;99.50;;;;;;4993029;28;20429;-88
2021/12/26 13:54:51;;;;;;;;;;;-0.90;99.90;;;;;;4985273;28;20385;-91
2021/12/26 13:57:23;;;;;;;;;;;-1.00;99.90;;;;;;4955308;28;19945;-90
2021/12/26 14:00:09;;;;;;;;;;;-1.00;99.90;;;;;;4970347;28;19976;-93
2021/12/26 14:02:34;;;;;;;;;;;0.30;99.90;;;;;;4986002;28;19921;-88
2021/12/26 14:05:06;;;;;;;;;;;-1.40;99.90;;;;;;4953335;28;19992;-89
2021/12/26 14:07:38;;;;;;;;;;;-2.60;99.90;;;;;;4968491;28;19922;-90
2021/12/26 14:10:05;;;;;;;;;;;-1.40;99.90;;;;;;4953242;28;19921;-89
2021/12/26 14:12:31;;;;;;;;;;;-1.40;99.90;;;;;;4959891;28;19925;-89
2021/12/26 14:15:22;;;;;;;;;;;-0.90;99.90;;;;;;4978224;28;20275;-89
2021/12/26 14:17:55;;;;;;;;;;;-1.50;99.90;;;;;;4966633;28;20335;-89
2021/12/26 14:20:26;;;;;;;;;;;-1.50;99.90;;;;;;4969619;28;19930;-89
2021/12/26 14:23:02;;;;;;;;;;;;;;;;;;;;;
2021/12/26 14:25:28;;;;;;;;;;;-1.10;99.90;;;;;;4968694;28;19972;-89
2021/12/26 14:27:56;;;;;;;;;;;-1.60;99.90;;;;;;4943526;28;19926;-89
2021/12/26 14:30:24;;;;;;;;;;;-2.00;99.90;;;;;;4943750;28;19927;-89
2021/12/26 14:32:56;;;;;;;;;;;-1.40;99.90;;;;;;4944301;28;20254;-89
2021/12/26 14:35:24;;;;;;;;;;;-1.80;99.90;;;;;;4943576;28;19934;-89
2021/12/26 14:37:57;;;;;;;;;;;-1.80;99.90;;;;;;4943804;28;19937;-89
2021/12/26 14:40:30;;;;;;;;;;;-1.90;99.90;;;;;;4944364;28;19937;-89
2021/12/26 14:43:03;;;;;;;;;;;-1.30;99.90;;;;;;4964358;28;19976;-90
2021/12/26 14:45:29;;;;;;;;;;;-2.30;99.90;;;;;;4947077;28;19922;-90
2021/12/26 14:47:57;;;;;;;;;;;-1.90;99.90;;;;;;4943462;28;20380;-89
2021/12/26 14:50:25;;;;;;;;;;;-1.50;99.90;;;;;;4948797;28;19968;-90
2021/12/26 14:52:55;;;;;;;;;;;-1.90;99.90;;;;;;4962123;28;20400;-89
2021/12/26 14:55:32;;;;;;;;;;;-0.80;99.90;;;;;;4962954;28;19932;-90